Belleair Beach, Florida
Current Conditions -  °F | °C
As of 3:15 AM on Saturday 29 Nov 2014 (Local Time) from KCLW Reporting Station
Clear Clear  
Wind Chill: 44°   Ceiling: Unl
Heat Index: 46°   Visibility: 10mi
Dew Point: 41°   Wind: 5mph
Humidity: 81%   Direction: 60°ENE
Pressure: 30.26"   Gusts: NA
Location:  27.92°N, 82.84°W
Report Text: KCLW 290815Z AUTO 06004KT 10SM CLR 08/05 A3026 RMK AO2
Loading
Personal Weather Stations






























Interactive Weather Map New forecast layout! Learn more

10-Day Weather Forecast

Advertisements
Track Severe Weather on mobile